Aktuell sind 58 Gäste und ein Mitglied online

[source: ADDS]
METAR
EDVE 211950Z 05003KT CAVOK 20/15 Q1013

EDDV 212020Z 05005KT 020V080 CAVOK 18/13 Q1013 NOSIG

ETHS 212020Z 08006KT 9999 SCT060 17/13 Q1014 BLU+

ETHC 212020Z 04006KT 9999 SCT050 SCT250 19/13 Q1013 BLU+

EDVK 211920Z VRB01KT CAVOK 22/14 Q1013

TAF
TAF EDVE 211700Z 2118/2121 VRB03KT CAVOK TEMPO 2118/2121 08005KT

TAF EDDV 211700Z 2118/2218 06004KT CAVOK TEMPO 2202/2218 12009KT SCT030CB PROB30 TEMPO 2204/2208 4500 TSRA

TAF EDVK 211100Z 2112/2121 VRB03KT 9999 SCT035 TEMPO 2112/2119 03005KT

SR / SS: 03:23 / 19:24 UTC (EDVE 2017-07-21)
Wir haben einen neuen Fluglehrer! Hallo Bernd, viel Spaß im Verein und mit deinen zukünftigen Schülern! +++ Florian hat seine PPL Prüfung bestanden! Herzlichen Glückwunsch und always happy landings! +++ Herzlich Willkommen im Verein Hakan! Viel Erfolg und Spaß bei deiner Ausbildung! +++ Wir begrüßen Harry als neues Mitglied im Verein! Herzlich Willkommen! +++ Ferdinand und Dennis haben die Theorieprüfung bestanden! Herzlichen Glückwunsch! +++ Neue Aquila 211 mit NVFR Zulassung und Glascockpit bestellt! ETA April 2017! +++ Herzlich Willkommen im Verein Mike! +++ Georg startet seine Ausbildung! Viel Erfolg und always happy landings! +++ Wir begrüßen Lasse als neues Mitglied im Verein und wünschen always happy landings! +++ Hallo und herzlichen Willkommen im Verein Thomas! +++ Die Termine für den nächsten BZF Kurs sind online! +++ Lukas hat das BZF bestanden! Herzlichen Glückwunsch!

Neues Bild in 60 Sekunden

Letztes NOTAM EDVE
von 28.07.2017 0800Z bis 28.07.2017 1400Z
INTENSIVE LAUNCH OF MODEL ROCKETS 0.5NM RADIUS CENTERED ON PSN 521348N 0103752E SICKTE (6NM SSE BRAUNSCHWEIG NDB BRU).
GND- 2300FT [more]


Letztes NOTAM EDBC
von 01.06.2017 1143Z bis 30.08.2017 1143Z
AD CLSD.

Letztes NOTAM EDVM
von 09.08.2017 1800Z bis 15.08.2017 0700Z
AIRFIELD CLSD DUE TO EVENT.

Letztes NOTAM EDDV
von 07.08.2017 0001Z bis 31.10.2017 2359Z
TRIGGER NOTAM - AIP SUP IFR 14/17 (20 JUL 2017) EFF 07 AUG 2017 TIL 31 OCT 2017. CONSTRUCTION WORK AT HANNOVER AIRPORT. FOR COMPLETE I [more]

Letztes NOTAM EDVK
von 04.09.2017 0830Z bis 07.09.2017 1000Z
WARBURG DVOR/DME WRB 113.70/CH84X ON MAINT. DO NOT USE, FALSE INDICATIONS POSS.

Letztes NOTAM ETHS
von 24.07.2017 1400Z bis 27.07.2017 0900Z
MON 1400-1500, TUE-THU 0600-0900
PAR RWY27 OUT OF SERVICE.

EDCB.png          aerodata150     Radio38